createdAt,value
2023-03-03T00:01:15.493Z,6.90
2023-03-03T00:03:42.462Z,6.80
2023-03-03T00:06:12.537Z,6.80
2023-03-03T00:08:40.269Z,6.60
2023-03-03T00:11:07.794Z,6.80
2023-03-03T00:13:44.095Z,6.70
2023-03-03T00:16:24.025Z,6.70
2023-03-03T00:18:51.696Z,6.60
2023-03-03T00:21:31.496Z,6.60
2023-03-03T00:24:21.921Z,6.50
2023-03-03T00:26:51.006Z,6.50
2023-03-03T00:29:36.566Z,6.50
2023-03-03T00:32:23.070Z,6.50
2023-03-03T00:34:51.115Z,6.40
2023-03-03T00:37:28.446Z,6.30
2023-03-03T00:40:02.175Z,6.20
2023-03-03T00:42:29.017Z,6.20
2023-03-03T00:45:00.246Z,6.20
2023-03-03T00:47:31.792Z,6.20
2023-03-03T00:50:25.172Z,6.20
2023-03-03T00:53:03.781Z,6.30
2023-03-03T00:55:31.526Z,6.30
2023-03-03T00:57:58.515Z,6.20
2023-03-03T01:00:25.738Z,6.30
2023-03-03T01:02:53.147Z,6.20
2023-03-03T01:05:21.301Z,6.20
2023-03-03T01:07:48.198Z,6.20
2023-03-03T01:10:16.585Z,6.20
2023-03-03T01:12:43.711Z,6.20
2023-03-03T01:15:12.666Z,6.20
2023-03-03T01:17:40.086Z,6.20
2023-03-03T01:20:10.893Z,6.20
2023-03-03T01:22:37.824Z,6.20
2023-03-03T01:25:05.221Z,6.20
2023-03-03T01:27:34.771Z,6.20
2023-03-03T01:30:01.783Z,6.20
2023-03-03T01:32:28.968Z,6.20
2023-03-03T01:34:56.121Z,6.20
2023-03-03T01:37:22.973Z,6.20
2023-03-03T01:39:50.561Z,6.20
2023-03-03T01:42:17.939Z,6.20
2023-03-03T01:44:46.506Z,6.20
2023-03-03T01:47:16.756Z,6.20
2023-03-03T01:49:49.670Z,6.20
2023-03-03T01:52:24.262Z,6.20
2023-03-03T01:54:55.459Z,6.10
2023-03-03T01:57:26.827Z,6.00
2023-03-03T01:59:57.504Z,6.00
2023-03-03T02:02:27.560Z,6.00
2023-03-03T02:04:54.834Z,5.90
2023-03-03T02:07:22.954Z,5.80
2023-03-03T02:09:56.029Z,5.70
2023-03-03T02:12:29.978Z,5.70
2023-03-03T02:14:58.197Z,5.60
2023-03-03T02:17:25.525Z,5.60
2023-03-03T02:19:57.879Z,5.60
2023-03-03T02:22:34.488Z,5.60
2023-03-03T02:25:03.391Z,5.60
2023-03-03T02:27:32.783Z,5.60
2023-03-03T02:30:09.656Z,5.50
2023-03-03T02:32:36.580Z,5.50
2023-03-03T02:35:27.339Z,5.50
2023-03-03T02:37:56.004Z,5.50
2023-03-03T02:40:26.543Z,5.50
2023-03-03T02:42:57.364Z,5.50
2023-03-03T02:45:24.241Z,5.50
2023-03-03T02:47:52.009Z,5.50
2023-03-03T02:50:18.953Z,5.50
2023-03-03T02:52:45.834Z,5.50
2023-03-03T02:55:12.679Z,5.50
2023-03-03T02:57:39.621Z,5.50
2023-03-03T03:00:09.501Z,5.50
2023-03-03T03:02:36.339Z,5.50
2023-03-03T03:05:03.363Z,5.50
2023-03-03T03:07:30.181Z,5.40
2023-03-03T03:09:57.052Z,5.30
2023-03-03T03:12:23.886Z,5.30
2023-03-03T03:14:50.703Z,5.20
2023-03-03T03:17:18.897Z,5.20
2023-03-03T03:19:45.794Z,5.20
2023-03-03T03:22:12.661Z,5.10
2023-03-03T03:24:39.708Z,5.10
2023-03-03T03:27:06.564Z,5.00
2023-03-03T03:29:33.380Z,5.00
2023-03-03T03:32:00.328Z,4.90
2023-03-03T03:34:28.606Z,4.90
2023-03-03T03:36:55.529Z,4.90
2023-03-03T03:39:22.337Z,4.80
2023-03-03T03:41:49.159Z,4.80
2023-03-03T03:44:15.921Z,4.80
2023-03-03T03:46:42.770Z,4.80
2023-03-03T03:49:09.623Z,4.70
2023-03-03T03:51:41.231Z,4.70
2023-03-03T03:54:08.437Z,4.60
2023-03-03T03:56:35.318Z,4.60
2023-03-03T03:59:02.478Z,4.60
2023-03-03T04:01:29.360Z,4.50
2023-03-03T04:03:56.321Z,4.50
2023-03-03T04:06:23.178Z,4.40
2023-03-03T04:08:51.434Z,4.40
2023-03-03T04:11:18.320Z,4.30
2023-03-03T04:13:45.248Z,4.30
2023-03-03T04:16:12.377Z,4.10
2023-03-03T04:18:39.388Z,4.10
2023-03-03T04:21:06.359Z,4.10
2023-03-03T04:23:33.142Z,3.80
2023-03-03T04:26:02.617Z,4.00
2023-03-03T04:28:29.467Z,4.00
2023-03-03T04:30:56.324Z,4.00
2023-03-03T04:33:23.250Z,4.00
2023-03-03T04:35:51.295Z,4.00
2023-03-03T04:38:18.255Z,4.00
2023-03-03T04:40:45.558Z,3.90
2023-03-03T04:43:14.546Z,3.90
2023-03-03T04:45:41.512Z,3.80
2023-03-03T04:48:08.399Z,3.80
2023-03-03T04:50:35.212Z,3.80
2023-03-03T04:53:02.368Z,3.70
2023-03-03T04:55:29.169Z,3.70
2023-03-03T04:57:56.031Z,3.60
2023-03-03T05:00:24.485Z,3.60
2023-03-03T05:02:51.512Z,3.60
2023-03-03T05:05:18.723Z,3.50
2023-03-03T05:07:45.690Z,3.40
2023-03-03T05:10:12.476Z,3.40
2023-03-03T05:12:39.366Z,3.30
2023-03-03T05:15:07.531Z,3.30
2023-03-03T05:17:35.782Z,3.10
2023-03-03T05:20:03.290Z,3.20
2023-03-03T05:22:30.168Z,3.10
2023-03-03T05:24:57.658Z,3.10
2023-03-03T05:27:24.534Z,3.10
2023-03-03T05:29:51.596Z,3.10
2023-03-03T05:32:18.572Z,3.10
2023-03-03T05:34:46.940Z,3.10
2023-03-03T05:37:15.465Z,3.10
2023-03-03T05:39:44.563Z,3.00
2023-03-03T05:42:12.999Z,3.00
2023-03-03T05:44:40.012Z,3.00
2023-03-03T05:47:07.214Z,3.10
2023-03-03T05:49:34.438Z,3.10
2023-03-03T05:52:03.025Z,3.20
2023-03-03T05:54:29.938Z,3.20
2023-03-03T05:56:57.442Z,3.20
2023-03-03T05:59:24.743Z,3.20
2023-03-03T06:01:51.712Z,3.20
2023-03-03T06:04:18.549Z,3.20
2023-03-03T06:06:45.351Z,3.20
2023-03-03T06:09:13.632Z,3.20
2023-03-03T06:11:40.452Z,3.20
2023-03-03T06:14:07.380Z,3.10
2023-03-03T06:16:34.251Z,3.10
2023-03-03T06:19:01.478Z,3.10
2023-03-03T06:21:28.376Z,3.10
2023-03-03T06:23:55.230Z,3.10
2023-03-03T06:26:23.856Z,3.10
2023-03-03T06:28:53.956Z,3.10
2023-03-03T06:31:20.907Z,3.20
2023-03-03T06:33:47.821Z,3.20
2023-03-03T06:36:14.772Z,3.40
2023-03-03T06:38:41.639Z,3.50
2023-03-03T06:41:08.614Z,3.60
2023-03-03T06:43:37.145Z,3.80
2023-03-03T06:46:04.659Z,4.00
2023-03-03T06:48:32.701Z,4.00
2023-03-03T06:51:00.808Z,4.30
2023-03-03T06:53:28.243Z,4.50
2023-03-03T06:55:56.817Z,4.70
2023-03-03T06:58:24.681Z,4.90
2023-03-03T07:00:56.958Z,5.20
2023-03-03T07:03:25.380Z,5.50
2023-03-03T07:05:53.589Z,5.80
2023-03-03T07:08:23.224Z,6.10
2023-03-03T07:10:51.700Z,6.40
2023-03-03T07:13:22.042Z,6.70
2023-03-03T07:15:50.337Z,6.90
2023-03-03T07:18:33.927Z,7.20
2023-03-03T07:21:14.633Z,7.50
2023-03-03T07:23:44.601Z,7.80
2023-03-03T07:26:13.518Z,8.20
2023-03-03T07:28:42.323Z,8.50
2023-03-03T07:31:27.409Z,8.90
2023-03-03T07:33:56.671Z,9.10
2023-03-03T07:36:28.062Z,9.40
2023-03-03T07:38:57.276Z,9.40
2023-03-03T07:41:24.192Z,9.40
2023-03-03T07:43:55.011Z,9.50
2023-03-03T07:46:29.309Z,9.50
2023-03-03T07:48:58.790Z,9.50
2023-03-03T07:51:28.152Z,9.40
2023-03-03T07:54:14.045Z,9.20
2023-03-03T07:56:41.102Z,9.00
2023-03-03T07:59:21.115Z,8.80
2023-03-03T08:01:52.183Z,8.50
2023-03-03T08:04:24.966Z,8.20
2023-03-03T08:06:54.027Z,7.90
2023-03-03T08:09:44.827Z,7.70
2023-03-03T08:12:27.081Z,7.70
2023-03-03T08:14:55.451Z,7.60
2023-03-03T08:17:24.262Z,7.50
2023-03-03T08:19:55.000Z,7.40
2023-03-03T08:22:36.029Z,7.30
2023-03-03T08:25:03.078Z,7.10
2023-03-03T08:27:29.953Z,6.90
2023-03-03T08:29:56.790Z,6.80
2023-03-03T08:32:24.001Z,6.70
2023-03-03T08:34:52.256Z,6.50
2023-03-03T08:37:19.072Z,6.40
2023-03-03T08:39:46.420Z,6.30
2023-03-03T08:42:15.879Z,6.30
2023-03-03T08:44:43.059Z,6.20
2023-03-03T08:47:09.830Z,6.20
2023-03-03T08:49:36.583Z,6.10
2023-03-03T08:52:05.068Z,6.10
2023-03-03T08:54:32.673Z,6.10
2023-03-03T08:56:59.567Z,6.10
2023-03-03T08:59:26.462Z,6.10
2023-03-03T09:01:53.341Z,6.00
2023-03-03T09:04:20.216Z,6.00
2023-03-03T09:06:47.387Z,6.00
2023-03-03T09:09:15.598Z,6.10
2023-03-03T09:11:43.587Z,6.60
2023-03-03T09:14:12.548Z,7.50
2023-03-03T09:16:40.868Z,8.60
2023-03-03T09:19:20.862Z,9.70
2023-03-03T09:21:47.827Z,10.80
2023-03-03T09:24:24.950Z,11.60
2023-03-03T09:26:53.084Z,12.30
2023-03-03T09:29:25.557Z,13.00
2023-03-03T09:31:55.062Z,13.60
2023-03-03T09:34:24.945Z,13.90
2023-03-03T09:36:52.828Z,14.20
2023-03-03T09:39:23.900Z,14.50
2023-03-03T09:42:14.732Z,14.50
2023-03-03T09:45:15.083Z,14.40
2023-03-03T09:47:53.745Z,14.40
2023-03-03T09:50:33.571Z,14.40
2023-03-03T09:53:13.105Z,14.40
2023-03-03T09:55:50.563Z,14.50
2023-03-03T09:58:29.002Z,14.70
2023-03-03T10:01:05.968Z,14.80
2023-03-03T10:03:56.838Z,15.20
2023-03-03T10:06:29.015Z,15.80
2023-03-03T10:09:09.689Z,16.50
2023-03-03T10:11:45.269Z,17.00
2023-03-03T10:14:33.976Z,17.40
2023-03-03T10:17:12.516Z,18.10
2023-03-03T10:19:41.661Z,18.80
2023-03-03T10:22:20.784Z,19.20
2023-03-03T10:25:02.238Z,19.30
2023-03-03T10:27:46.910Z,19.20
2023-03-03T10:30:33.146Z,18.90
2023-03-03T10:33:12.583Z,18.80
2023-03-03T10:36:06.933Z,19.00
2023-03-03T10:38:59.106Z,18.50
2023-03-03T10:41:51.414Z,17.90
2023-03-03T10:44:31.985Z,17.60
2023-03-03T10:47:18.060Z,17.80
2023-03-03T10:49:56.140Z,17.60
2023-03-03T10:52:33.917Z,17.50
2023-03-03T10:55:17.504Z,17.60
2023-03-03T10:58:04.985Z,17.60
2023-03-03T11:00:38.992Z,17.70
2023-03-03T11:03:58.086Z,18.00
2023-03-03T11:06:30.323Z,18.40
2023-03-03T11:09:09.047Z,18.40
2023-03-03T11:11:41.502Z,18.40
2023-03-03T11:14:23.074Z,18.30
2023-03-03T11:17:02.886Z,18.10
2023-03-03T11:19:59.631Z,18.00
2023-03-03T11:22:37.775Z,17.80
2023-03-03T11:25:16.676Z,17.70
2023-03-03T11:28:11.934Z,17.60
2023-03-03T11:30:50.477Z,17.40
2023-03-03T11:33:23.163Z,17.20
2023-03-03T11:35:55.486Z,17.10
2023-03-03T11:38:40.776Z,16.90
2023-03-03T11:41:16.691Z,16.60
2023-03-03T11:43:47.445Z,16.30
2023-03-03T11:46:17.655Z,15.80
2023-03-03T11:48:53.441Z,15.20
2023-03-03T11:51:27.311Z,14.70
2023-03-03T11:53:59.472Z,14.20
2023-03-03T11:56:30.070Z,13.90
2023-03-03T11:59:17.350Z,13.80
2023-03-03T12:01:49.485Z,13.50
2023-03-03T12:04:22.234Z,13.20
2023-03-03T12:07:09.741Z,12.90
2023-03-03T12:09:52.980Z,12.80
2023-03-03T12:12:24.232Z,12.60
2023-03-03T12:15:02.348Z,12.40
2023-03-03T12:17:46.977Z,12.30
2023-03-03T12:20:20.554Z,12.10
2023-03-03T12:23:06.531Z,12.00
2023-03-03T12:25:39.514Z,12.00
2023-03-03T12:28:11.930Z,12.00
2023-03-03T12:30:57.872Z,12.00
2023-03-03T12:33:34.280Z,12.00
2023-03-03T12:36:14.406Z,12.10
2023-03-03T12:38:54.265Z,12.30
2023-03-03T12:41:28.785Z,12.40
2023-03-03T12:44:01.683Z,12.50
2023-03-03T12:46:43.807Z,12.70
2023-03-03T12:49:10.618Z,12.70
2023-03-03T12:51:58.841Z,12.70
2023-03-03T12:54:37.246Z,12.80
2023-03-03T12:57:13.770Z,12.90
2023-03-03T12:59:52.108Z,13.00
2023-03-03T13:02:43.117Z,13.00
2023-03-03T13:05:21.513Z,12.80
2023-03-03T13:07:58.051Z,12.80
2023-03-03T13:10:34.485Z,12.80
2023-03-03T13:13:09.539Z,12.80
2023-03-03T13:15:48.922Z,12.90
2023-03-03T13:18:31.487Z,12.80
2023-03-03T13:21:06.549Z,12.80
2023-03-03T13:23:46.598Z,12.90
2023-03-03T13:26:20.363Z,12.70
2023-03-03T13:29:03.137Z,12.70
2023-03-03T13:31:33.502Z,12.60
2023-03-03T13:34:02.436Z,12.60
2023-03-03T13:36:34.690Z,12.60
2023-03-03T13:39:11.967Z,12.50
2023-03-03T13:41:46.946Z,12.30
2023-03-03T13:44:20.244Z,12.30
2023-03-03T13:47:03.041Z,12.20
2023-03-03T13:49:47.940Z,12.20
2023-03-03T13:52:21.278Z,12.20
2023-03-03T13:55:03.591Z,12.10
2023-03-03T13:57:45.787Z,12.00
2023-03-03T14:00:21.621Z,12.00
2023-03-03T14:03:18.248Z,12.00
2023-03-03T14:05:48.650Z,12.00
2023-03-03T14:08:27.635Z,11.90
2023-03-03T14:11:10.091Z,11.90
2023-03-03T14:13:48.435Z,11.80
2023-03-03T14:16:20.432Z,11.70
2023-03-03T14:18:55.972Z,11.70
2023-03-03T14:21:29.531Z,11.70
2023-03-03T14:24:02.950Z,11.90
2023-03-03T14:26:31.266Z,11.90
2023-03-03T14:29:29.168Z,12.00
2023-03-03T14:31:56.592Z,12.10
2023-03-03T14:34:36.135Z,12.10
2023-03-03T14:37:23.840Z,12.10
2023-03-03T14:40:18.818Z,12.10
2023-03-03T14:42:54.861Z,12.00
2023-03-03T14:45:31.420Z,11.90
2023-03-03T14:47:59.524Z,11.80
2023-03-03T14:50:37.610Z,11.80
2023-03-03T14:53:14.686Z,11.80
2023-03-03T14:55:43.477Z,11.80
2023-03-03T14:58:35.231Z,11.80
2023-03-03T15:01:20.805Z,11.90
2023-03-03T15:03:52.462Z,11.90
2023-03-03T15:06:34.750Z,11.80
2023-03-03T15:09:38.455Z,11.80
2023-03-03T15:12:20.294Z,11.80
2023-03-03T15:14:50.392Z,11.70
2023-03-03T15:17:36.255Z,11.60
2023-03-03T15:20:38.783Z,11.60
2023-03-03T15:23:16.095Z,11.60
2023-03-03T15:25:52.901Z,11.50
2023-03-03T15:28:32.758Z,11.30
2023-03-03T15:31:08.352Z,11.30
2023-03-03T15:33:46.065Z,11.30
2023-03-03T15:36:21.162Z,11.20
2023-03-03T15:38:58.487Z,11.20
2023-03-03T15:41:33.581Z,11.20
2023-03-03T15:44:12.389Z,11.20
2023-03-03T15:46:56.119Z,11.20
2023-03-03T15:49:49.547Z,11.30
2023-03-03T15:52:28.808Z,11.20
2023-03-03T15:55:12.348Z,11.20
2023-03-03T15:57:52.811Z,11.20
2023-03-03T16:00:36.700Z,11.20
2023-03-03T16:03:13.668Z,11.30
2023-03-03T16:05:49.626Z,11.40
2023-03-03T16:08:19.506Z,11.50
2023-03-03T16:10:55.631Z,11.50
2023-03-03T16:13:35.661Z,11.50
2023-03-03T16:16:27.507Z,11.50
2023-03-03T16:19:18.740Z,11.40
2023-03-03T16:22:14.222Z,11.30
2023-03-03T16:24:54.719Z,11.20
2023-03-03T16:27:27.335Z,11.20
2023-03-03T16:30:06.088Z,11.00
2023-03-03T16:32:40.219Z,10.90
2023-03-03T16:35:22.699Z,10.80
2023-03-03T16:37:57.980Z,10.70
2023-03-03T16:40:27.692Z,10.70
2023-03-03T16:43:03.853Z,10.70
2023-03-03T16:45:35.422Z,10.80
2023-03-03T16:48:27.186Z,10.60
2023-03-03T16:51:23.360Z,10.70
2023-03-03T16:54:02.143Z,10.70
2023-03-03T16:56:36.061Z,10.70
2023-03-03T16:59:39.866Z,10.60
2023-03-03T17:02:27.801Z,10.50
2023-03-03T17:05:03.033Z,10.40
2023-03-03T17:07:42.198Z,10.30
2023-03-03T17:10:21.839Z,10.20
2023-03-03T17:13:07.451Z,10.10
2023-03-03T17:15:42.690Z,9.90
2023-03-03T17:18:18.491Z,9.90
2023-03-03T17:20:48.693Z,9.80
2023-03-03T17:23:34.508Z,9.80
2023-03-03T17:26:12.880Z,9.60
2023-03-03T17:28:48.697Z,9.60
2023-03-03T17:31:26.787Z,9.40
2023-03-03T17:34:16.194Z,9.40
2023-03-03T17:36:55.039Z,9.30
2023-03-03T17:39:38.524Z,9.30
2023-03-03T17:42:14.438Z,9.20
2023-03-03T17:44:50.311Z,9.10
2023-03-03T17:47:26.934Z,9.10
2023-03-03T17:50:07.747Z,9.10
2023-03-03T17:52:59.902Z,9.00
2023-03-03T17:55:50.131Z,8.90
2023-03-03T17:58:53.488Z,8.80
2023-03-03T18:01:30.501Z,8.70
2023-03-03T18:04:27.577Z,8.60
2023-03-03T18:07:25.046Z,8.60
2023-03-03T18:10:15.127Z,8.50
2023-03-03T18:12:51.773Z,8.40
2023-03-03T18:15:42.778Z,8.40
2023-03-03T18:18:30.066Z,8.30
2023-03-03T18:21:05.175Z,8.30
2023-03-03T18:23:41.840Z,8.20
2023-03-03T18:26:34.403Z,8.20
2023-03-03T18:29:20.317Z,8.20
2023-03-03T18:32:18.963Z,8.00
2023-03-03T18:34:46.171Z,7.90
2023-03-03T18:37:39.067Z,7.80
2023-03-03T18:40:28.092Z,7.80
2023-03-03T18:42:55.288Z,7.70
2023-03-03T18:45:50.006Z,7.70
2023-03-03T18:48:17.416Z,7.70
2023-03-03T18:53:31.528Z,7.60
2023-03-03T18:56:00.295Z,7.60
2023-03-03T18:58:40.753Z,7.60
2023-03-03T19:01:36.107Z,7.60
2023-03-03T19:04:18.261Z,7.60
2023-03-03T19:07:03.120Z,7.60
2023-03-03T19:09:52.496Z,7.60
2023-03-03T19:12:39.825Z,7.60
2023-03-03T19:15:38.024Z,7.50
2023-03-03T19:18:13.871Z,7.50
2023-03-03T19:20:43.145Z,7.40
2023-03-03T19:23:14.596Z,7.40
2023-03-03T19:25:43.068Z,7.30
2023-03-03T19:28:29.163Z,7.30
2023-03-03T19:30:59.022Z,7.30
2023-03-03T19:33:38.482Z,7.20
2023-03-03T19:36:22.694Z,7.20
2023-03-03T19:39:04.770Z,7.20
2023-03-03T19:41:48.001Z,7.10
2023-03-03T19:44:29.882Z,7.10
2023-03-03T19:47:00.698Z,7.00
2023-03-03T19:49:47.939Z,7.00
2023-03-03T19:52:22.455Z,7.00
2023-03-03T19:55:03.016Z,6.90
2023-03-03T19:57:43.947Z,6.90
2023-03-03T20:00:20.142Z,6.80
2023-03-03T20:02:57.069Z,6.80
2023-03-03T20:05:32.266Z,6.70
2023-03-03T20:08:04.223Z,6.60
2023-03-03T20:10:47.013Z,6.60
2023-03-03T20:13:35.254Z,6.50
2023-03-03T20:16:14.949Z,6.50
2023-03-03T20:19:02.498Z,6.40
2023-03-03T20:21:33.376Z,6.40
2023-03-03T20:24:28.273Z,6.30
2023-03-03T20:26:59.724Z,6.20
2023-03-03T20:30:08.419Z,6.20
2023-03-03T20:33:15.629Z,6.10
2023-03-03T20:35:52.204Z,6.00
2023-03-03T20:38:28.791Z,5.90
2023-03-03T20:41:06.734Z,5.90
2023-03-03T20:43:50.319Z,5.80
2023-03-03T20:46:26.022Z,5.70
2023-03-03T20:49:09.582Z,5.60
2023-03-03T20:51:43.774Z,5.40
2023-03-03T20:54:21.354Z,5.30
2023-03-03T20:56:54.731Z,5.30
2023-03-03T20:59:27.149Z,5.20
2023-03-03T21:02:04.332Z,5.10
2023-03-03T21:04:33.424Z,5.10
2023-03-03T21:07:03.191Z,5.10
2023-03-03T21:09:31.971Z,5.10
2023-03-03T21:11:59.954Z,5.00
2023-03-03T21:14:28.702Z,4.90
2023-03-03T21:16:58.488Z,4.90
2023-03-03T21:19:30.026Z,4.90
2023-03-03T21:21:59.791Z,4.90
2023-03-03T21:24:47.619Z,4.80
2023-03-03T21:27:26.009Z,4.80
2023-03-03T21:30:03.393Z,4.70
2023-03-03T21:32:40.936Z,4.60
2023-03-03T21:35:10.022Z,4.50
2023-03-03T21:37:47.498Z,4.40
2023-03-03T21:40:17.376Z,4.40
2023-03-03T21:42:44.988Z,4.30
2023-03-03T21:45:13.385Z,4.20
2023-03-03T21:47:41.550Z,4.20
2023-03-03T21:50:11.471Z,4.10
2023-03-03T21:52:38.566Z,4.10
2023-03-03T21:55:06.630Z,4.10
2023-03-03T21:57:35.220Z,4.00
2023-03-03T22:00:02.192Z,3.90
2023-03-03T22:02:29.117Z,3.90
2023-03-03T22:04:57.520Z,3.90
2023-03-03T22:07:24.434Z,3.90
2023-03-03T22:09:51.321Z,3.90
2023-03-03T22:12:18.407Z,3.90
2023-03-03T22:14:45.388Z,3.80
2023-03-03T22:17:12.316Z,3.70
2023-03-03T22:19:39.181Z,3.60
2023-03-03T22:22:07.422Z,3.60
2023-03-03T22:24:34.212Z,3.50
2023-03-03T22:27:01.077Z,3.50
2023-03-03T22:29:27.937Z,3.50
2023-03-03T22:31:54.903Z,3.50
2023-03-03T22:34:21.880Z,3.50
2023-03-03T22:36:48.690Z,3.50
2023-03-03T22:39:16.897Z,3.40
2023-03-03T22:41:43.806Z,3.40
2023-03-03T22:44:10.693Z,3.40
2023-03-03T22:46:37.583Z,3.40
2023-03-03T22:49:04.677Z,3.30
2023-03-03T22:51:31.651Z,3.30
2023-03-03T22:53:58.799Z,3.30
2023-03-03T22:56:27.067Z,3.30
2023-03-03T22:58:53.961Z,3.30
2023-03-03T23:01:20.736Z,3.40
2023-03-03T23:03:47.680Z,3.50
2023-03-03T23:06:14.544Z,3.50
2023-03-03T23:08:44.334Z,3.60
2023-03-03T23:11:11.231Z,3.60
2023-03-03T23:13:39.433Z,3.50
2023-03-03T23:16:06.983Z,3.50
2023-03-03T23:18:34.093Z,3.50
2023-03-03T23:21:00.964Z,3.60
2023-03-03T23:23:29.606Z,3.60
2023-03-03T23:25:56.968Z,3.60
2023-03-03T23:28:23.916Z,3.60
2023-03-03T23:30:52.500Z,3.60
2023-03-03T23:33:19.453Z,3.50
2023-03-03T23:35:46.387Z,3.50
2023-03-03T23:38:15.528Z,3.50
2023-03-03T23:40:42.430Z,3.50
2023-03-03T23:43:09.357Z,3.50
2023-03-03T23:45:36.338Z,3.50
2023-03-03T23:48:05.481Z,3.50
2023-03-03T23:50:33.146Z,3.50
2023-03-03T23:53:00.133Z,3.50
2023-03-03T23:55:27.053Z,3.50
2023-03-03T23:57:54.931Z,3.50
